Time;durP1;ratioP1;P1;durP2;ratioP2;P2;SDS_P1;SDS_P2;PMS_P1;PMS_P2;Temp;Humidity;BMP_temperature;BMP_pressure;BME280_temperature;BME280_humidity;BME280_pressure;Samples;Min_cycle;Max_cycle;Signal;HPM_P1;HPM_P2
2022/09/13 00:06:51;;;;;;;43.78;32.15;;;11.30;99.90;;;;;;20735931;28;20140;-46
2022/09/13 00:16:54;;;;;;;50.42;36.80;;;11.10;99.90;;;;;;20705024;28;20038;-59
2022/09/13 00:26:57;;;;;;;55.33;39.25;;;11.10;99.90;;;;;;20719408;28;20038;-48
2022/09/13 00:37:01;;;;;;;53.33;39.53;;;11.00;99.90;;;;;;20686141;28;20101;-58
2022/09/13 00:47:04;;;;;;;62.03;42.65;;;11.00;99.90;;;;;;20742275;28;20490;-46
2022/09/13 00:57:09;;;;;;;49.30;37.00;;;10.90;99.90;;;;;;20740957;28;20050;-59
2022/09/13 01:07:14;;;;;;;49.97;35.65;;;10.90;99.90;;;;;;20747927;28;20034;-58
2022/09/13 01:17:17;;;;;;;45.10;33.92;;;10.90;99.90;;;;;;20733517;28;20089;-48
2022/09/13 01:27:50;;;;;;;49.28;35.40;;;10.80;99.90;;;;;;20746475;28;20033;-47
2022/09/13 01:38:11;;;;;;;56.90;38.80;;;10.90;99.90;;;;;;20730221;28;20034;-47
2022/09/13 01:48:40;;;;;;;59.80;40.35;;;10.90;99.90;;;;;;20759929;28;20569;-45
2022/09/13 01:59:04;;;;;;;74.93;48.10;;;10.80;99.90;;;;;;20732157;28;20038;-46
2022/09/13 02:09:13;;;;;;;63.58;44.20;;;10.70;99.90;;;;;;20756237;28;20092;-47
2022/09/13 02:19:25;;;;;;;64.90;43.87;;;10.70;99.90;;;;;;20741621;28;20038;-45
2022/09/13 02:29:32;;;;;;;71.70;47.42;;;10.80;99.90;;;;;;20745033;28;20096;-45
2022/09/13 02:39:41;;;;;;;78.60;51.38;;;10.70;99.90;;;;;;20741032;28;20093;-46
2022/09/13 02:50:10;;;;;;;82.70;52.37;;;10.90;99.90;;;;;;20749685;28;20112;-46
2022/09/13 03:00:14;;;;;;;78.30;50.97;;;11.10;99.90;;;;;;20466299;28;20047;-46
2022/09/13 03:10:18;;;;;;;71.07;47.33;;;11.30;99.90;;;;;;20469568;28;20455;-45
2022/09/13 03:20:57;;;;;;;69.50;45.78;;;11.30;99.90;;;;;;20469145;29;20043;-45
2022/09/13 03:31:11;;;;;;;66.50;44.58;;;11.30;99.90;;;;;;20537858;28;20076;-46
2022/09/13 03:41:19;;;;;;;50.75;36.40;;;11.20;99.90;;;;;;20702074;28;20112;-48
2022/09/13 03:51:22;;;;;;;55.88;38.13;;;10.90;99.90;;;;;;20703149;28;20077;-47
2022/09/13 04:01:25;;;;;;;56.53;40.35;;;10.80;99.90;;;;;;20719850;28;20034;-47
2022/09/13 04:11:27;;;;;;;56.33;39.10;;;10.60;99.90;;;;;;20744912;28;20579;-46
2022/09/13 04:21:30;;;;;;;65.90;43.13;;;10.50;99.90;;;;;;20719981;28;20037;-46
2022/09/13 04:31:32;;;;;;;67.28;43.03;;;10.40;99.90;;;;;;20795717;28;20130;-59
2022/09/13 04:41:35;;;;;;;65.63;42.72;;;10.40;99.90;;;;;;20744559;28;20099;-46
2022/09/13 04:51:37;;;;;;;77.47;48.83;;;10.20;99.90;;;;;;20734816;28;20042;-45
2022/09/13 05:01:40;;;;;;;74.97;46.63;;;10.20;99.90;;;;;;20760758;28;20136;-48
2022/09/13 05:11:42;;;;;;;87.47;51.47;;;10.20;99.90;;;;;;20748049;28;20057;-49
2022/09/13 05:21:45;;;;;;;75.22;47.85;;;10.20;99.90;;;;;;20751646;28;20045;-48
2022/09/13 05:31:47;;;;;;;71.32;47.05;;;10.30;99.90;;;;;;20767866;28;20087;-47
2022/09/13 05:41:50;;;;;;;82.13;50.58;;;10.50;99.90;;;;;;20744535;28;20061;-46
2022/09/13 05:51:52;;;;;;;73.50;46.72;;;10.70;99.90;;;;;;20788387;28;20112;-48
2022/09/13 06:01:54;;;;;;;73.18;48.78;;;10.90;99.90;;;;;;20733437;28;20085;-46
2022/09/13 06:11:57;;;;;;;66.57;45.58;;;11.00;99.90;;;;;;20745327;28;20479;-47
2022/09/13 06:22:00;;;;;;;53.42;39.47;;;11.30;99.90;;;;;;20730833;28;20042;-45
2022/09/13 06:32:03;;;;;;;41.22;33.13;;;11.50;99.90;;;;;;20745108;28;20446;-46
2022/09/13 06:42:06;;;;;;;35.10;29.08;;;12.00;99.90;;;;;;20775011;28;20571;-50
2022/09/13 06:52:15;;;;;;;26.75;21.85;;;12.60;99.90;;;;;;20711185;28;20104;-45
2022/09/13 07:02:18;;;;;;;22.30;19.50;;;13.50;99.90;;;;;;20713463;28;20042;-44
2022/09/13 07:12:20;;;;;;;18.13;15.70;;;14.40;99.90;;;;;;20736410;28;20112;-45
2022/09/13 07:22:26;;;;;;;15.07;12.93;;;15.10;99.90;;;;;;20718557;28;20041;-45
2022/09/13 07:32:31;;;;;;;18.95;13.95;;;16.40;99.90;;;;;;20701104;28;20093;-59
2022/09/13 07:42:33;;;;;;;15.13;12.30;;;17.10;99.90;;;;;;20709425;28;20046;-45
2022/09/13 07:52:36;;;;;;;12.85;10.65;;;17.50;99.90;;;;;;20728136;28;20487;-45
2022/09/13 08:02:39;;;;;;;10.10;8.68;;;18.20;99.90;;;;;;20713556;28;20061;-47
2022/09/13 08:12:41;;;;;;;8.52;7.72;;;18.80;99.90;;;;;;20715994;28;20030;-60
2022/09/13 08:22:44;;;;;;;9.20;7.57;;;19.40;99.90;;;;;;20720942;28;20062;-46
2022/09/13 08:32:50;;;;;;;7.72;6.82;;;19.90;99.90;;;;;;20716816;28;20030;-47
2022/09/13 08:43:17;;;;;;;8.48;6.68;;;20.30;99.90;;;;;;20715535;28;20037;-60
2022/09/13 08:53:28;;;;;;;7.80;7.00;;;20.60;99.90;;;;;;20709948;28;20410;-46
2022/09/13 09:03:45;;;;;;;5.55;5.05;;;21.10;99.90;;;;;;20733139;28;20125;-47
2022/09/13 09:14:23;;;;;;;5.50;4.70;;;21.50;99.90;;;;;;20747905;28;20367;-47
2022/09/13 09:24:26;;;;;;;7.47;6.67;;;21.80;99.90;;;;;;20717773;28;20104;-46
2022/09/13 09:35:02;;;;;;;5.13;4.72;;;22.40;99.90;;;;;;20746485;28;20043;-60
2022/09/13 09:45:25;;;;;;;5.65;4.68;;;22.60;99.90;;;;;;20743963;28;20484;-61
2022/09/13 09:55:33;;;;;;;6.82;4.38;;;22.90;99.90;;;;;;20743562;28;20100;-60
2022/09/13 10:05:36;;;;;;;;;;;22.80;99.90;;;;;;20729153;28;20034;-47
2022/09/13 10:15:55;;;;;;;8.10;6.18;;;23.10;99.90;;;;;;20726712;28;19936;-45
2022/09/13 10:26:05;;;;;;;9.23;6.30;;;23.20;99.90;;;;;;20742653;28;20038;-60
2022/09/13 10:36:57;;;;;;;7.00;6.30;;;23.20;99.90;;;;;;20756162;28;20037;-60
2022/09/13 10:47:05;;;;;;;6.78;5.53;;;23.50;99.90;;;;;;20723330;28;20046;-47
2022/09/13 10:57:33;;;;;;;6.93;6.22;;;23.40;99.90;;;;;;20723642;28;20042;-46
2022/09/13 11:07:57;;;;;;;6.17;5.57;;;23.10;99.90;;;;;;20738835;28;20129;-60
2022/09/13 11:18:31;;;;;;;7.38;6.68;;;23.10;99.90;;;;;;20721786;28;20490;-60
2022/09/13 11:28:41;;;;;;;8.27;7.38;;;23.40;99.90;;;;;;20736286;28;20104;-59
2022/09/13 11:38:52;;;;;;;;;;;23.30;99.90;;;;;;20737465;28;20103;-46
2022/09/13 11:49:19;;;;;;;11.13;8.75;;;23.60;99.90;;;;;;20720713;28;20363;-45
2022/09/13 11:59:27;;;;;;;12.60;9.02;;;23.70;99.90;;;;;;20744070;28;20038;-48
2022/09/13 12:09:39;;;;;;;9.32;8.52;;;24.20;99.90;;;;;;20750728;28;20042;-45
2022/09/13 12:19:47;;;;;;;9.65;8.75;;;24.50;99.90;;;;;;20739335;28;20088;-46
2022/09/13 12:29:54;;;;;;;9.15;8.25;;;24.40;99.90;;;;;;20718213;28;20065;-60
2022/09/13 12:40:08;;;;;;;9.00;8.10;;;24.70;99.90;;;;;;20719374;28;20453;-45
2022/09/13 12:50:41;;;;;;;9.98;9.10;;;25.10;99.90;;;;;;20765975;28;20042;-45
2022/09/13 13:01:12;;;;;;;12.68;10.07;;;24.70;99.90;;;;;;20781610;28;20553;-61
2022/09/13 13:11:14;;;;;;;11.65;10.20;;;24.60;99.90;;;;;;20731518;28;20125;-60
2022/09/13 13:21:26;;;;;;;9.90;8.90;;;24.40;99.90;;;;;;20737445;28;20088;-61
2022/09/13 13:31:29;;;;;;;11.55;10.35;;;24.00;99.90;;;;;;20737257;28;20038;-60
2022/09/13 13:41:48;;;;;;;9.45;8.52;;;23.20;99.90;;;;;;20805803;28;20041;-48
2022/09/13 13:52:12;;;;;;;10.40;8.85;;;22.10;99.90;;;;;;20743248;28;20069;-48
2022/09/13 14:02:20;;;;;;;10.70;9.18;;;22.20;99.90;;;;;;20743287;28;20038;-60
2022/09/13 14:12:32;;;;;;;9.47;8.47;;;22.50;99.90;;;;;;20732476;28;20394;-60
2022/09/13 14:22:34;;;;;;;10.07;8.40;;;22.10;99.90;;;;;;20750262;28;20096;-48
2022/09/13 14:32:42;;;;;;;8.10;6.22;;;21.70;99.90;;;;;;20724394;28;20556;-49
2022/09/13 14:42:47;;;;;;;11.40;8.45;;;21.70;99.90;;;;;;20748857;28;20042;-59
2022/09/13 14:53:00;;;;;;;13.20;10.90;;;21.60;99.90;;;;;;20763693;28;20500;-47
2022/09/13 15:03:14;;;;;;;13.55;12.15;;;21.20;99.90;;;;;;20735311;28;20567;-60
2022/09/13 15:13:17;;;;;;;14.63;12.73;;;21.10;99.90;;;;;;20737175;28;20088;-59
2022/09/13 15:23:32;;;;;;;15.43;13.07;;;21.00;99.90;;;;;;20742429;28;20478;-59
2022/09/13 15:33:36;;;;;;;14.73;13.23;;;20.60;99.90;;;;;;20759526;28;20096;-47
2022/09/13 15:43:38;;;;;;;14.27;12.80;;;20.20;99.90;;;;;;20736007;28;20084;-48
2022/09/13 15:53:43;;;;;;;13.40;11.43;;;19.40;99.90;;;;;;20734403;28;20566;-59
2022/09/13 16:03:45;;;;;;;13.48;11.70;;;18.80;99.90;;;;;;20745952;28;20501;-50
2022/09/13 16:13:47;;;;;;;15.18;13.65;;;18.40;99.90;;;;;;20735459;28;20042;-46
2022/09/13 16:23:49;;;;;;;20.08;15.85;;;17.90;99.90;;;;;;20752065;28;20037;-59
2022/09/13 16:33:52;;;;;;;16.17;14.35;;;17.70;99.90;;;;;;20734296;28;20478;-59
2022/09/13 16:43:55;;;;;;;19.50;16.88;;;17.40;99.90;;;;;;20754903;28;20434;-46
2022/09/13 16:53:59;;;;;;;23.13;19.67;;;17.00;99.90;;;;;;20748927;28;20046;-59
2022/09/13 17:04:02;;;;;;;27.40;20.15;;;16.70;99.90;;;;;;20750127;28;20383;-46
2022/09/13 17:14:07;;;;;;;20.77;18.58;;;16.20;99.90;;;;;;20735072;28;20037;-48
2022/09/13 17:24:10;;;;;;;30.20;25.90;;;15.60;99.90;;;;;;20747843;28;20092;-47
2022/09/13 17:34:12;;;;;;;35.42;26.65;;;15.10;99.90;;;;;;20751001;28;20042;-47
2022/09/13 17:44:17;;;;;;;38.13;29.80;;;14.60;99.90;;;;;;20748642;28;20057;-51
2022/09/13 17:54:20;;;;;;;33.15;27.48;;;14.40;99.90;;;;;;20744668;28;20418;-46
2022/09/13 18:04:23;;;;;;;35.35;27.85;;;14.20;99.90;;;;;;20762180;28;20038;-59
2022/09/13 18:14:27;;;;;;;33.40;26.60;;;14.20;99.90;;;;;;20746030;28;20033;-46
2022/09/13 18:24:29;;;;;;;34.63;28.52;;;14.20;99.90;;;;;;20726868;28;20030;-58
2022/09/13 18:34:35;;;;;;;38.63;29.20;;;14.20;99.90;;;;;;20743674;28;20483;-45
2022/09/13 18:44:46;;;;;;;42.83;33.25;;;14.00;99.90;;;;;;20740517;28;20045;-46
2022/09/13 18:54:49;;;;;;;44.10;33.85;;;13.90;99.90;;;;;;20740311;28;20054;-47
2022/09/13 19:04:52;;;;;;;43.35;33.65;;;13.80;99.90;;;;;;20747057;28;20033;-50
2022/09/13 19:14:55;;;;;;;37.03;31.35;;;13.70;99.90;;;;;;20748717;28;20345;-46
2022/09/13 19:24:57;;;;;;;44.22;35.13;;;13.50;99.90;;;;;;20726007;28;20037;-46
2022/09/13 19:35:00;;;;;;;53.70;40.15;;;13.50;99.90;;;;;;20737135;28;20490;-46
2022/09/13 19:45:03;;;;;;;46.08;35.47;;;13.50;99.90;;;;;;20718669;28;20026;-48
2022/09/13 19:55:06;;;;;;;50.97;41.63;;;13.40;99.90;;;;;;20743771;28;20128;-46
2022/09/13 20:05:09;;;;;;;47.15;37.58;;;13.40;99.90;;;;;;20736372;28;20038;-45
2022/09/13 20:15:11;;;;;;;48.60;39.35;;;13.50;99.90;;;;;;20736109;28;20034;-45
2022/09/13 20:25:13;;;;;;;46.90;37.28;;;13.50;99.90;;;;;;20719371;28;20037;-46
2022/09/13 20:35:16;;;;;;;48.30;39.45;;;13.60;99.90;;;;;;20732734;28;20430;-58
2022/09/13 20:45:20;;;;;;;53.72;42.55;;;13.50;99.90;;;;;;20738512;28;20045;-48
2022/09/13 20:55:26;;;;;;;53.25;39.08;;;13.30;99.90;;;;;;20747804;28;20062;-49
2022/09/13 21:05:29;;;;;;;53.90;40.55;;;13.00;99.90;;;;;;20748645;28;20069;-50
2022/09/13 21:15:32;;;;;;;50.13;39.03;;;13.00;99.90;;;;;;20751465;28;20030;-59
2022/09/13 21:25:35;;;;;;;49.72;39.15;;;12.80;99.90;;;;;;20757881;28;20048;-49
2022/09/13 21:35:38;;;;;;;51.17;39.30;;;12.90;99.90;;;;;;20769327;28;20091;-59
2022/09/13 21:45:41;;;;;;;44.78;35.90;;;12.90;99.90;;;;;;20765397;28;20034;-48
2022/09/13 21:55:45;;;;;;;46.80;35.95;;;13.40;99.90;;;;;;20823559;28;20053;-49
2022/09/13 22:05:55;;;;;;;36.40;28.77;;;13.60;99.90;;;;;;20760581;28;20033;-58
2022/09/13 22:16:12;;;;;;;38.30;29.55;;;14.20;99.90;;;;;;20728248;28;20037;-58
2022/09/13 22:26:21;;;;;;;34.53;29.73;;;14.60;99.90;;;;;;20773879;28;20406;-47
2022/09/13 22:36:24;;;;;;;38.10;30.40;;;14.60;99.90;;;;;;20744679;28;20383;-58
2022/09/13 22:46:36;;;;;;;34.97;29.48;;;14.50;99.90;;;;;;20761966;28;20049;-48
2022/09/13 22:56:39;;;;;;;39.90;32.10;;;14.20;99.90;;;;;;20701627;28;20556;-58
2022/09/13 23:06:44;;;;;;;45.97;35.67;;;13.90;99.90;;;;;;20652546;28;20100;-47
2022/09/13 23:16:49;;;;;;;46.72;36.00;;;13.50;99.90;;;;;;20714767;28;20038;-50
2022/09/13 23:26:53;;;;;;;47.38;38.13;;;13.30;99.90;;;;;;20697275;28;20042;-58
2022/09/13 23:36:56;;;;;;;53.22;39.15;;;13.50;99.90;;;;;;20650349;28;20039;-50
2022/09/13 23:46:59;;;;;;;52.90;40.85;;;13.70;99.90;;;;;;20705147;28;20104;-48
2022/09/13 23:57:01;;;;;;;41.13;33.53;;;13.80;99.90;;;;;;20751736;28;20045;-58
